Aurora, Colorado
Current Conditions -  °F | °C
As of 12:58 PM on Sunday 23 Nov 2014 (Local Time) from KBKF Reporting Station
Broken Clouds Broken Clouds  
Wind Chill: 33°   Ceiling: 10000
Heat Index: 42°   Visibility: 10mi
Dew Point: 11°   Wind: 18mph
Humidity: 29%   Direction: 10°N
Pressure: 29.76"   Gusts: 24mph
Location:  39.69°N, 104.86°W
Report Text: KBKF 231958Z 01016G21KT 10SM SCT060 BKN100 BKN200 05/M12 A2976 RMK AO2A SLP061 T00541116
Loading
Personal Weather Stations






























Interactive Weather Map New forecast layout! Learn more

10-Day Weather Forecast

Advertisements
Track Severe Weather on mobile